Time;durP1;ratioP1;P1;durP2;ratioP2;P2;SDS_P1;SDS_P2;PMS_P1;PMS_P2;Temp;Humidity;BMP_temperature;BMP_pressure;BME280_temperature;BME280_humidity;BME280_pressure;Samples;Min_cycle;Max_cycle;Signal;HPM_P1;HPM_P2
2022/06/10 00:07:10;;;;;;;1.83;1.73;;;;;;;24.74;54.39;99729.53;20422641;28;97495;-86
2022/06/10 00:17:10;;;;;;;2.03;1.52;;;;;;;24.72;54.32;99731.53;20424849;28;97117;-86
2022/06/10 00:27:13;;;;;;;1.50;1.40;;;;;;;24.74;54.21;99742.78;20428562;28;97018;-86
2022/06/10 00:37:14;;;;;;;2.30;1.77;;;;;;;24.70;54.34;99731.66;20448663;28;102054;-85
2022/06/10 00:47:40;;;;;;;2.07;1.87;;;;;;;24.73;54.46;99749.06;20436946;28;99065;-86
2022/06/10 00:57:45;;;;;;;2.65;1.60;;;;;;;24.72;54.53;99750.06;20454702;28;97200;-86
2022/06/10 01:07:55;;;;;;;1.60;1.50;;;;;;;24.72;54.27;99765.94;20415458;28;97046;-86
2022/06/10 01:18:13;;;;;;;1.83;1.73;;;;;;;24.70;54.22;99757.31;20399803;28;97873;-86
2022/06/10 01:28:26;;;;;;;2.15;1.80;;;;;;;24.69;54.21;99755.66;20401069;28;96996;-86
2022/06/10 01:39:00;;;;;;;2.15;1.80;;;;;;;24.69;54.51;99779.47;20394116;28;96943;-86
2022/06/10 01:49:07;;;;;;;1.80;1.50;;;;;;;24.68;54.11;99778.66;20384157;28;97333;-87
2022/06/10 01:59:31;;;;;;;1.70;1.60;;;;;;;24.67;54.49;99794.69;20404939;28;100540;-87
2022/06/10 02:09:40;;;;;;;2.85;1.60;;;;;;;24.68;54.10;99809.59;20399982;28;98136;-86
2022/06/10 02:19:46;;;;;;;1.58;1.48;;;;;;;24.66;54.33;99835.38;20385123;28;98615;-86
2022/06/10 02:29:56;;;;;;;2.42;1.70;;;;;;;24.66;54.33;99835.38;20394857;28;97878;-86
2022/06/10 02:40:04;;;;;;;1.60;1.50;;;;;;;24.65;54.21;99850.41;20392920;28;97037;-86
2022/06/10 02:50:05;;;;;;;1.50;1.40;;;;;;;24.64;54.37;99872.56;20404311;28;100002;-86
2022/06/10 03:10:37;;;;;;;1.75;1.65;;;;;;;24.62;54.31;99896.56;20408179;28;96947;-85
2022/06/10 03:20:47;;;;;;;1.75;1.65;;;;;;;24.61;54.46;99896.72;20414079;28;97468;-85
2022/06/10 03:31:17;;;;;;;1.70;1.60;;;;;;;24.61;54.36;99889.59;20409577;28;98148;-86
2022/06/10 03:41:25;;;;;;;1.90;1.73;;;;;;;24.62;54.57;99883.31;20399930;28;97780;-85
2022/06/10 03:51:26;;;;;;;1.73;1.63;;;;;;;24.63;54.31;99900.03;20418944;28;97604;-85
2022/06/10 04:01:26;;;;;;;1.77;1.58;;;;;;;24.64;54.22;99906.16;20402657;28;97313;-86
2022/06/10 04:11:27;;;;;;;1.88;1.75;;;;;;;24.64;54.29;99911.47;20401455;28;97034;-85
2022/06/10 04:21:34;;;;;;;3.67;1.88;;;;;;;24.62;54.14;99912.44;20390032;28;97834;-85
2022/06/10 04:31:35;;;;;;;9.45;3.85;;;;;;;24.39;54.15;99938.53;20409116;28;101588;-83
2022/06/10 04:41:37;;;;;;;7.13;4.18;;;;;;;24.25;54.52;99945.16;20405730;28;98087;-83
2022/06/10 04:51:39;;;;;;;4.40;4.00;;;;;;;24.18;54.94;99951.22;20414077;28;98972;-83
2022/06/10 05:01:39;;;;;;;8.37;4.50;;;;;;;24.08;55.95;99957.41;20416889;28;97089;-81
2022/06/10 05:11:40;;;;;;;12.30;4.45;;;;;;;24.00;56.13;99978.47;20428587;28;96910;-79
2022/06/10 05:21:43;;;;;;;7.25;4.03;;;;;;;23.91;56.15;99982.81;20420917;28;97650;-85
2022/06/10 05:31:44;;;;;;;6.97;4.20;;;;;;;23.87;55.92;99997.28;20413284;28;96923;-84
2022/06/10 05:52:05;;;;;;;5.53;3.65;;;;;;;23.80;56.31;100017.34;20417230;28;97965;-83
2022/06/10 06:02:10;;;;;;;5.03;4.07;;;;;;;23.70;56.14;100022.66;20402326;28;98081;-80
2022/06/10 06:12:11;;;;;;;7.70;3.88;;;;;;;23.71;56.42;100032.28;20401788;28;97308;-74
2022/06/10 06:22:11;;;;;;;17.65;4.32;;;;;;;23.72;56.55;100044.53;20396335;28;98249;-74
2022/06/10 06:32:12;;;;;;;20.52;4.00;;;;;;;23.76;57.57;100055.63;20414292;28;97158;-77
2022/06/10 06:42:12;;;;;;;7.70;3.00;;;;;;;23.61;56.27;100068.50;20458682;28;97466;-76
2022/06/10 06:52:13;;;;;;;3.75;3.17;;;;;;;23.65;54.97;100064.56;20373351;28;98596;-74
2022/06/10 07:02:13;;;;;;;3.95;2.85;;;;;;;23.71;54.36;100076.41;20374504;28;98386;-76
2022/06/10 07:12:14;;;;;;;6.03;2.90;;;;;;;23.75;53.81;100065.38;20406531;28;97359;-74
2022/06/10 07:22:15;;;;;;;5.47;2.85;;;;;;;23.81;53.92;100078.03;20429085;28;97745;-75
2022/06/10 07:32:17;;;;;;;5.20;2.70;;;;;;;23.85;53.62;100073.25;20431152;28;96925;-75
2022/06/10 07:42:17;;;;;;;4.80;3.13;;;;;;;23.89;53.35;100068.53;20404347;28;100812;-74
2022/06/10 07:52:18;;;;;;;2.97;2.55;;;;;;;23.92;53.21;100079.69;20396266;28;97411;-74
2022/06/10 08:02:18;;;;;;;5.43;3.28;;;;;;;24.03;53.03;100086.59;20397137;28;99431;-76
2022/06/10 08:12:19;;;;;;;3.47;2.95;;;;;;;24.10;52.88;100087.69;20408302;28;97734;-79
2022/06/10 08:22:35;;;;;;;11.77;2.95;;;;;;;24.16;52.20;100091.56;20426501;28;100708;-78
2022/06/10 08:32:37;;;;;;;5.90;3.20;;;;;;;24.18;51.39;100092.28;20432841;28;97096;-81
2022/06/10 08:42:41;;;;;;;7.13;3.40;;;;;;;24.30;52.17;100096.38;20435264;28;97166;-81
2022/06/10 08:52:48;;;;;;;6.18;3.00;;;;;;;24.45;51.67;100103.84;20451490;28;97177;-80
2022/06/10 09:02:51;;;;;;;5.25;3.10;;;;;;;24.50;51.83;100111.31;20455864;28;98096;-82
2022/06/10 09:13:14;;;;;;;7.65;3.80;;;;;;;24.58;52.07;100108.78;20460089;28;97145;-83
2022/06/10 09:23:45;;;;;;;10.50;3.80;;;;;;;24.61;52.43;100111.97;20420833;28;97099;-81
2022/06/10 09:34:30;;;;;;;10.50;3.83;;;;;;;24.61;52.84;100109.31;20423667;28;97108;-81
2022/06/10 09:44:51;;;;;;;7.70;3.53;;;;;;;24.65;52.88;100107.19;20430221;28;99168;-80
2022/06/10 09:55:26;;;;;;;11.90;3.67;;;;;;;24.69;52.86;100121.00;20423797;28;97063;-82
2022/06/10 10:05:33;;;;;;;5.57;3.22;;;;;;;24.80;51.53;100123.44;20402772;28;97252;-81
2022/06/10 10:15:49;;;;;;;13.75;4.28;;;;;;;24.90;50.45;100118.94;20421804;28;97593;-82
2022/06/10 10:25:50;;;;;;;5.47;3.30;;;;;;;24.95;49.55;100118.47;20415163;28;96851;-85
2022/06/10 10:35:54;;;;;;;4.00;2.83;;;;;;;25.06;48.17;100115.59;20427235;28;97139;-84
2022/06/10 10:45:59;;;;;;;4.40;3.13;;;;;;;25.18;48.49;100110.06;20440448;28;98726;-85
2022/06/10 10:56:01;;;;;;;4.22;2.70;;;;;;;25.27;47.90;100109.16;20444278;28;97143;-84
2022/06/10 11:06:06;;;;;;;13.43;4.03;;;;;;;25.34;49.58;100098.78;20414135;28;96807;-83
2022/06/10 11:16:18;;;;;;;8.02;3.95;;;;;;;25.39;49.80;100101.84;20409486;28;99119;-83
2022/06/10 11:26:22;;;;;;;6.30;3.20;;;;;;;25.47;49.00;100093.13;20394598;28;98450;-84
2022/06/10 11:36:27;;;;;;;3.10;2.80;;;;;;;25.53;48.77;100089.84;20420663;28;97536;-82
2022/06/10 11:46:36;;;;;;;5.00;2.92;;;;;;;25.67;49.32;100076.03;20412831;28;97659;-84
2022/06/10 12:07:15;;;;;;;7.00;3.38;;;;;;;26.05;50.15;100055.31;20401845;28;99962;-83
2022/06/10 12:17:38;;;;;;;5.90;3.25;;;;;;;26.14;49.17;100032.34;20417578;28;96899;-84
2022/06/10 12:27:48;;;;;;;5.47;3.90;;;;;;;26.07;49.38;100018.03;20431625;28;97657;-83
2022/06/10 12:37:53;;;;;;;12.13;3.90;;;;;;;26.05;48.33;100014.72;20420164;28;96992;-83
2022/06/10 12:47:58;;;;;;;5.20;3.58;;;;;;;26.05;51.11;100038.59;20387998;28;100380;-83
2022/06/10 12:57:58;;;;;;;9.20;3.95;;;;;;;26.00;49.87;100031.09;20370813;28;100870;-83
2022/06/10 13:07:59;;;;;;;6.43;3.45;;;;;;;26.01;50.09;100030.13;20353275;28;102352;-77
2022/06/10 13:18:17;;;;;;;8.40;3.70;;;;;;;26.05;50.53;100033.28;20357043;28;97185;-80
2022/06/10 13:28:25;;;;;;;10.40;3.97;;;;;;;26.08;50.43;100021.56;20381701;28;97978;-82
2022/06/10 13:38:35;;;;;;;10.38;3.80;;;;;;;26.17;50.05;100017.91;20400233;28;97450;-83
2022/06/10 13:48:36;;;;;;;7.25;3.58;;;;;;;26.24;50.33;100018.13;20393333;28;97304;-79
2022/06/10 13:58:37;;;;;;;10.80;4.07;;;;;;;26.29;49.50;100015.81;20355569;28;100078;-79
2022/06/10 14:08:45;;;;;;;4.77;3.17;;;;;;;26.33;49.54;100017.97;20379376;28;97809;-79
2022/06/10 14:18:47;;;;;;;6.50;3.22;;;;;;;26.41;48.66;100009.19;20371798;28;101355;-79
2022/06/10 14:28:48;;;;;;;3.60;3.30;;;;;;;26.48;48.29;99988.97;20374923;28;98667;-79
2022/06/10 14:39:25;;;;;;;4.43;3.47;;;;;;;26.54;48.99;100006.06;20332564;28;101134;-77
2022/06/10 14:49:28;;;;;;;6.70;3.65;;;;;;;26.54;48.28;100029.97;20347252;28;98427;-79
2022/06/10 14:59:30;;;;;;;3.70;3.40;;;;;;;26.60;48.31;100025.81;20360472;28;97740;-78
2022/06/10 15:09:37;;;;;;;4.45;4.05;;;;;;;26.72;47.96;100037.81;20373208;28;97459;-77
2022/06/10 15:19:38;;;;;;;8.77;3.80;;;;;;;26.77;46.60;100066.53;20394763;28;100015;-74
2022/06/10 15:29:39;;;;;;;;;;;;;;;26.87;46.87;100090.28;20372065;28;98568;-75
2022/06/10 15:50:02;;;;;;;8.25;3.95;;;;;;;26.86;46.80;100048.81;20352606;28;98751;-76
2022/06/10 16:09:33;;;;;;;6.90;3.58;;;;;;;26.85;46.95;100122.34;20804201;27;1578293;-80
2022/06/10 16:19:34;;;;;;;5.97;3.50;;;;;;;26.76;49.60;100155.22;20760701;27;97586;-76
2022/06/10 16:29:34;;;;;;;8.63;3.77;;;;;;;26.65;50.86;100158.97;20769864;27;100442;-74
2022/06/10 16:39:36;;;;;;;4.40;3.28;;;;;;;25.86;48.33;100162.50;20834643;27;97040;-77
2022/06/10 16:49:37;;;;;;;5.65;3.55;;;;;;;25.60;49.64;100174.88;20828574;27;98034;-77
2022/06/10 16:59:38;;;;;;;6.53;4.40;;;;;;;25.51;50.67;100176.63;20828594;27;101032;-77
2022/06/10 17:09:38;;;;;;;6.90;4.23;;;;;;;25.59;51.43;100168.75;20904873;27;98452;-76
2022/06/10 17:19:39;;;;;;;8.15;5.47;;;;;;;25.75;52.59;100161.94;20834781;27;100019;-76
2022/06/10 17:29:44;;;;;;;9.32;5.47;;;;;;;25.78;51.45;100149.19;20795793;27;99167;-76
2022/06/10 17:39:45;;;;;;;10.95;8.32;;;;;;;25.78;51.30;100140.38;20814543;27;100418;-77
2022/06/10 17:49:49;;;;;;;7.47;5.75;;;;;;;25.75;50.18;100125.63;20846910;27;97668;-78
2022/06/10 17:59:55;;;;;;;14.23;9.02;;;;;;;25.79;50.22;100136.75;20842189;27;98053;-78
2022/06/10 18:09:56;;;;;;;9.00;6.00;;;;;;;25.73;50.27;100141.69;20838875;27;98539;-75
2022/06/10 18:19:58;;;;;;;7.50;5.38;;;;;;;25.66;50.27;100161.84;20814501;27;98639;-78
2022/06/10 18:30:01;;;;;;;6.97;5.27;;;;;;;25.08;49.96;100179.88;20832632;27;101298;-76
2022/06/10 18:40:25;;;;;;;5.57;4.63;;;;;;;24.83;49.96;100201.75;20827775;27;103941;-78
2022/06/10 18:50:29;;;;;;;6.28;5.22;;;;;;;24.78;50.18;100226.88;20829902;27;97737;-77
2022/06/10 19:00:34;;;;;;;5.93;5.32;;;;;;;24.97;50.26;100248.13;20829621;27;98006;-77
2022/06/10 19:10:38;;;;;;;6.97;4.82;;;;;;;24.92;49.91;100312.94;20851028;27;100296;-77
2022/06/10 19:20:40;;;;;;;7.57;4.80;;;;;;;24.42;52.47;100316.66;20835974;27;98763;-77
2022/06/10 19:30:41;;;;;;;5.65;5.00;;;;;;;24.54;53.17;100335.06;20836960;27;100957;-77
2022/06/10 19:40:46;;;;;;;7.03;4.93;;;;;;;24.22;54.10;100352.91;20850178;27;99419;-77
2022/06/10 19:50:55;;;;;;;8.38;4.80;;;;;;;24.24;52.83;100355.41;20842154;27;100397;-77
2022/06/10 20:00:58;;;;;;;4.43;3.28;;;;;;;24.15;49.17;100375.59;20822716;27;100260;-76
2022/06/10 20:11:00;;;;;;;3.47;3.10;;;;;;;24.04;49.83;100379.22;20821156;27;98337;-79
2022/06/10 20:21:03;;;;;;;5.43;3.53;;;;;;;23.83;50.10;100381.94;20836796;27;99899;-76
2022/06/10 20:31:15;;;;;;;8.35;3.70;;;;;;;24.03;49.18;100388.13;20830612;27;100826;-76
2022/06/10 20:41:18;;;;;;;5.23;3.33;;;;;;;23.88;50.48;100384.19;20822188;27;98645;-75
2022/06/10 20:51:24;;;;;;;4.75;3.60;;;;;;;24.04;50.27;100381.03;20823940;27;98989;-76
2022/06/10 21:01:35;;;;;;;5.22;3.53;;;;;;;24.05;50.39;100378.25;20799035;27;99503;-74
2022/06/10 21:11:35;;;;;;;4.00;3.45;;;;;;;24.21;50.48;100366.28;20823517;27;98475;-76
2022/06/10 21:21:36;;;;;;;6.03;3.97;;;;;;;24.27;50.31;100352.50;20789150;27;104388;-76
2022/06/10 21:31:58;;;;;;;5.43;4.20;;;;;;;24.25;51.34;100351.78;20824823;27;100621;-76
2022/06/10 21:52:28;;;;;;;7.00;4.63;;;;;;;24.25;51.03;100343.84;20842880;27;98492;-76
2022/06/10 22:02:30;;;;;;;6.15;4.50;;;;;;;24.25;50.94;100335.91;20838895;27;101448;-77
2022/06/10 22:12:35;;;;;;;4.90;4.40;;;;;;;24.25;50.69;100342.03;20832691;27;97871;-77
2022/06/10 22:22:35;;;;;;;8.23;4.85;;;;;;;24.26;50.15;100335.78;20856455;27;102306;-77
2022/06/10 22:32:36;;;;;;;5.18;4.68;;;;;;;24.26;50.16;100353.47;20845322;27;97812;-77
2022/06/10 22:42:36;;;;;;;5.30;4.70;;;;;;;24.22;49.95;100344.16;20844860;27;97620;-77
2022/06/10 22:52:43;;;;;;;5.22;4.50;;;;;;;24.18;49.73;100359.47;20839255;27;98520;-77
2022/06/10 23:02:47;;;;;;;5.03;4.47;;;;;;;24.10;49.83;100383.13;20848016;27;99375;-76
2022/06/10 23:12:48;;;;;;;6.43;4.80;;;;;;;24.03;49.46;100372.25;20843216;27;97471;-76
2022/06/10 23:22:50;;;;;;;6.10;4.40;;;;;;;23.93;50.29;100368.78;20845742;27;98907;-77
2022/06/10 23:32:53;;;;;;;6.83;5.03;;;;;;;23.87;50.49;100383.34;20850378;27;98568;-77
2022/06/10 23:42:55;;;;;;;5.88;4.65;;;;;;;23.82;50.40;100367.06;20840318;27;97549;-77
2022/06/10 23:53:01;;;;;;;6.45;5.15;;;;;;;23.78;50.58;100350.63;20835052;27;97995;-77
